createdAt,value
2022-08-26T00:01:56.080Z,56.07
2022-08-26T00:04:25.073Z,56.23
2022-08-26T00:06:52.677Z,56.67
2022-08-26T00:09:19.309Z,56.40
2022-08-26T00:11:46.148Z,56.47
2022-08-26T00:14:16.171Z,56.61
2022-08-26T00:16:48.252Z,57.13
2022-08-26T00:19:18.112Z,57.19
2022-08-26T00:21:46.542Z,57.42
2022-08-26T00:24:16.096Z,56.99
2022-08-26T00:26:42.961Z,57.23
2022-08-26T00:29:09.727Z,57.36
2022-08-26T00:31:37.536Z,57.78
2022-08-26T00:34:05.678Z,57.19
2022-08-26T00:36:32.586Z,57.12
2022-08-26T00:38:59.374Z,56.75
2022-08-26T00:41:26.441Z,56.65
2022-08-26T00:43:54.167Z,56.71
2022-08-26T00:46:25.313Z,56.98
2022-08-26T00:49:12.198Z,57.41
2022-08-26T00:51:55.022Z,57.60
2022-08-26T00:54:27.360Z,57.96
2022-08-26T00:57:05.140Z,57.91
2022-08-26T00:59:36.210Z,58.40
2022-08-26T01:02:06.321Z,58.43
2022-08-26T01:04:36.717Z,57.61
2022-08-26T01:07:04.144Z,57.48
2022-08-26T01:09:32.276Z,57.71
2022-08-26T01:12:01.811Z,57.66
2022-08-26T01:14:33.934Z,57.80
2022-08-26T01:17:06.241Z,58.15
2022-08-26T01:19:46.102Z,58.36
2022-08-26T01:22:28.757Z,58.52
2022-08-26T01:24:58.643Z,58.25
2022-08-26T01:27:32.620Z,57.91
2022-08-26T01:30:01.640Z,58.08
2022-08-26T01:32:29.648Z,58.75
2022-08-26T01:34:57.220Z,58.96
2022-08-26T01:37:27.563Z,58.65
2022-08-26T01:39:56.554Z,59.28
2022-08-26T01:42:26.996Z,58.96
2022-08-26T01:45:04.106Z,59.08
2022-08-26T01:47:35.514Z,58.99
2022-08-26T01:50:09.467Z,58.72
2022-08-26T01:52:39.524Z,58.92
2022-08-26T01:55:06.912Z,58.64
2022-08-26T01:57:34.537Z,59.03
2022-08-26T02:00:05.121Z,59.46
2022-08-26T02:02:40.808Z,59.12
2022-08-26T02:05:15.050Z,59.10
2022-08-26T02:07:43.114Z,59.61
2022-08-26T02:10:11.049Z,59.88
2022-08-26T02:12:39.095Z,59.93
2022-08-26T02:15:09.766Z,59.71
2022-08-26T02:17:43.027Z,59.71
2022-08-26T02:20:14.931Z,59.81
2022-08-26T02:22:45.231Z,60.11
2022-08-26T02:25:23.969Z,60.30
2022-08-26T02:27:51.407Z,59.67
2022-08-26T02:30:21.938Z,60.18
2022-08-26T02:32:49.787Z,60.03
2022-08-26T02:35:20.058Z,59.89
2022-08-26T02:37:49.358Z,59.74
2022-08-26T02:40:21.450Z,60.02
2022-08-26T02:42:49.073Z,59.57
2022-08-26T02:45:16.722Z,59.23
2022-08-26T02:47:51.439Z,59.81
2022-08-26T02:50:19.516Z,60.11
2022-08-26T02:52:48.263Z,60.27
2022-08-26T02:55:15.003Z,60.43
2022-08-26T02:57:41.602Z,60.29
2022-08-26T03:00:11.230Z,60.73
2022-08-26T03:02:37.938Z,60.93
2022-08-26T03:05:05.392Z,61.19
2022-08-26T03:07:31.948Z,61.00
2022-08-26T03:09:58.782Z,60.88
2022-08-26T03:12:25.816Z,60.80
2022-08-26T03:14:53.161Z,60.76
2022-08-26T03:17:21.107Z,60.42
2022-08-26T03:19:50.743Z,60.56
2022-08-26T03:22:20.512Z,60.57
2022-08-26T03:24:47.163Z,60.00
2022-08-26T03:27:14.388Z,60.45
2022-08-26T03:30:00.129Z,60.93
2022-08-26T03:32:26.936Z,61.37
2022-08-26T03:34:54.254Z,60.80
2022-08-26T03:37:21.639Z,61.47
2022-08-26T03:39:49.272Z,61.89
2022-08-26T03:42:16.089Z,61.53
2022-08-26T03:44:42.821Z,61.56
2022-08-26T03:47:10.894Z,61.48
2022-08-26T03:49:38.035Z,61.05
2022-08-26T03:52:05.098Z,60.83
2022-08-26T03:54:32.674Z,60.70
2022-08-26T03:56:59.322Z,61.56
2022-08-26T03:59:26.820Z,61.50
2022-08-26T04:01:54.521Z,60.97
2022-08-26T04:04:22.714Z,60.93
2022-08-26T04:06:50.275Z,60.99
2022-08-26T04:09:20.971Z,61.00
2022-08-26T04:11:50.365Z,61.03
2022-08-26T04:14:20.427Z,60.97
2022-08-26T04:16:47.986Z,61.38
2022-08-26T04:19:15.608Z,60.70
2022-08-26T04:21:43.387Z,60.94
2022-08-26T04:24:12.970Z,61.05
2022-08-26T04:26:42.816Z,61.27
2022-08-26T04:29:17.660Z,60.99
2022-08-26T04:31:45.252Z,61.23
2022-08-26T04:34:11.964Z,61.48
2022-08-26T04:36:41.099Z,61.55
2022-08-26T04:39:11.993Z,61.10
2022-08-26T04:41:40.067Z,61.61
2022-08-26T04:44:07.187Z,62.05
2022-08-26T04:46:34.255Z,62.23
2022-08-26T04:49:01.871Z,62.26
2022-08-26T04:51:28.646Z,62.03
2022-08-26T04:53:57.019Z,62.31
2022-08-26T04:56:26.569Z,61.80
2022-08-26T04:58:53.543Z,62.16
2022-08-26T05:01:20.904Z,62.17
2022-08-26T05:03:48.242Z,62.65
2022-08-26T05:06:15.866Z,62.91
2022-08-26T05:08:45.677Z,64.02
2022-08-26T05:11:12.370Z,65.92
2022-08-26T05:13:39.278Z,65.47
2022-08-26T05:16:09.807Z,65.48
2022-08-26T05:18:39.946Z,64.84
2022-08-26T05:21:07.455Z,65.38
2022-08-26T05:23:36.073Z,63.93
2022-08-26T05:26:08.228Z,63.81
2022-08-26T05:28:35.666Z,64.46
2022-08-26T05:31:15.761Z,64.59
2022-08-26T05:33:44.906Z,62.79
2022-08-26T05:36:16.048Z,63.55
2022-08-26T05:38:42.916Z,64.72
2022-08-26T05:41:19.859Z,64.74
2022-08-26T05:43:46.620Z,64.21
2022-08-26T05:46:14.008Z,64.13
2022-08-26T05:48:41.419Z,62.76
2022-08-26T05:51:11.977Z,63.41
2022-08-26T05:53:40.646Z,63.96
2022-08-26T05:56:12.286Z,63.23
2022-08-26T05:58:41.242Z,63.50
2022-08-26T06:01:10.542Z,63.92
2022-08-26T06:03:39.890Z,63.78
2022-08-26T06:06:09.864Z,63.78
2022-08-26T06:08:38.127Z,63.81
2022-08-26T06:11:18.395Z,63.98
2022-08-26T06:13:45.818Z,63.30
2022-08-26T06:16:17.903Z,63.71
2022-08-26T06:18:45.747Z,63.75
2022-08-26T06:21:12.467Z,61.84
2022-08-26T06:23:58.153Z,63.68
2022-08-26T06:26:26.164Z,63.64
2022-08-26T06:28:53.211Z,63.07
2022-08-26T06:31:19.973Z,62.05
2022-08-26T06:33:46.612Z,62.29
2022-08-26T06:36:21.904Z,62.81
2022-08-26T06:38:51.966Z,62.01
2022-08-26T06:41:23.752Z,62.25
2022-08-26T06:43:52.346Z,62.41
2022-08-26T06:46:21.548Z,62.01
2022-08-26T06:48:48.803Z,62.04
2022-08-26T06:51:24.700Z,62.47
2022-08-26T06:53:53.302Z,61.22
2022-08-26T06:56:24.471Z,61.86
2022-08-26T06:58:51.997Z,61.73
2022-08-26T07:01:22.338Z,62.41
2022-08-26T07:03:51.322Z,62.24
2022-08-26T07:06:19.795Z,62.08
2022-08-26T07:08:51.466Z,62.02
2022-08-26T07:11:19.461Z,61.84
2022-08-26T07:13:46.801Z,62.80
2022-08-26T07:16:16.401Z,62.44
2022-08-26T07:18:44.828Z,62.56
2022-08-26T07:21:15.215Z,62.42
2022-08-26T07:23:42.279Z,62.07
2022-08-26T07:26:19.466Z,61.61
2022-08-26T07:28:50.517Z,62.25
2022-08-26T07:31:22.410Z,61.73
2022-08-26T07:33:49.696Z,61.99
2022-08-26T07:36:19.326Z,62.30
2022-08-26T07:38:48.094Z,62.87
2022-08-26T07:41:16.964Z,62.47
2022-08-26T07:43:43.932Z,60.51
2022-08-26T07:46:14.531Z,59.64
2022-08-26T07:48:46.226Z,58.71
2022-08-26T07:51:17.896Z,59.06
2022-08-26T07:53:48.097Z,59.91
2022-08-26T07:56:21.875Z,58.65
2022-08-26T07:58:51.792Z,59.55
2022-08-26T08:01:26.807Z,59.92
2022-08-26T08:03:54.792Z,60.42
2022-08-26T08:06:27.388Z,59.37
2022-08-26T08:08:56.254Z,58.76
2022-08-26T08:11:27.107Z,59.79
2022-08-26T08:13:56.759Z,61.19
2022-08-26T08:16:28.342Z,60.61
2022-08-26T08:18:59.485Z,59.84
2022-08-26T08:21:27.911Z,58.59
2022-08-26T08:23:57.236Z,58.77
2022-08-26T08:26:25.274Z,59.69
2022-08-26T08:28:55.201Z,59.80
2022-08-26T08:31:54.423Z,60.34
2022-08-26T08:34:12.916Z,58.68
2022-08-26T08:36:39.804Z,59.92
2022-08-26T08:39:07.132Z,57.72
2022-08-26T08:42:04.924Z,57.21
2022-08-26T08:44:32.854Z,56.58
2022-08-26T08:47:12.046Z,57.16
2022-08-26T08:49:38.965Z,56.43
2022-08-26T08:52:13.788Z,55.87
2022-08-26T08:54:40.562Z,54.75
2022-08-26T08:57:12.831Z,54.88
2022-08-26T08:59:53.307Z,54.38
2022-08-26T09:02:46.586Z,56.21
2022-08-26T09:05:24.195Z,53.40
2022-08-26T09:08:19.868Z,56.24
2022-08-26T09:10:46.568Z,55.58
2022-08-26T09:13:17.029Z,55.51
2022-08-26T09:15:55.171Z,55.88
2022-08-26T09:18:34.353Z,52.47
2022-08-26T09:21:05.484Z,51.89
2022-08-26T09:23:35.800Z,50.35
2022-08-26T09:26:15.013Z,54.05
2022-08-26T09:28:47.074Z,55.44
2022-08-26T09:31:23.381Z,54.97
2022-08-26T09:34:06.798Z,53.30
2022-08-26T09:36:41.399Z,53.53
2022-08-26T09:39:27.537Z,50.82
2022-08-26T09:42:23.592Z,54.49
2022-08-26T09:44:58.166Z,52.27
2022-08-26T09:47:34.473Z,49.10
2022-08-26T09:50:10.968Z,46.44
2022-08-26T09:52:40.532Z,47.61
2022-08-26T09:55:09.556Z,49.53
2022-08-26T09:57:45.819Z,52.95
2022-08-26T10:00:38.584Z,51.46
2022-08-26T10:03:23.885Z,51.24
2022-08-26T10:05:59.375Z,51.65
2022-08-26T10:08:36.156Z,52.20
2022-08-26T10:11:11.503Z,50.00
2022-08-26T10:13:43.284Z,49.94
2022-08-26T10:16:23.793Z,49.34
2022-08-26T10:19:00.600Z,50.22
2022-08-26T10:21:37.601Z,49.84
2022-08-26T10:24:07.592Z,48.91
2022-08-26T10:27:05.771Z,47.93
2022-08-26T10:29:44.100Z,51.24
2022-08-26T10:32:16.198Z,48.89
2022-08-26T10:34:43.829Z,50.34
2022-08-26T10:37:18.022Z,48.55
2022-08-26T10:40:07.702Z,48.46
2022-08-26T10:42:46.181Z,49.71
2022-08-26T10:45:16.688Z,49.55
2022-08-26T10:47:46.306Z,49.49
2022-08-26T10:50:14.915Z,48.78
2022-08-26T10:52:50.768Z,50.16
2022-08-26T10:55:43.192Z,49.88
2022-08-26T10:58:31.136Z,48.28
2022-08-26T11:01:33.365Z,48.34
2022-08-26T11:04:24.610Z,49.00
2022-08-26T11:07:30.311Z,47.31
2022-08-26T11:10:07.462Z,45.96
2022-08-26T11:12:37.238Z,45.15
2022-08-26T11:15:29.482Z,47.33
2022-08-26T11:18:02.353Z,48.70
2022-08-26T11:20:47.149Z,48.05
2022-08-26T11:23:14.385Z,47.62
2022-08-26T11:25:56.338Z,48.52
2022-08-26T11:28:39.884Z,46.52
2022-08-26T11:31:26.713Z,44.19
2022-08-26T11:34:13.974Z,45.22
2022-08-26T11:36:56.157Z,46.51
2022-08-26T11:39:36.608Z,44.77
2022-08-26T11:42:20.217Z,45.63
2022-08-26T11:44:49.081Z,45.31
2022-08-26T11:47:24.969Z,46.43
2022-08-26T11:50:06.543Z,45.15
2022-08-26T11:52:33.238Z,45.15
2022-08-26T11:55:05.014Z,45.65
2022-08-26T11:57:36.024Z,45.58
2022-08-26T12:00:04.730Z,46.16
2022-08-26T12:02:33.477Z,46.22
2022-08-26T12:05:02.125Z,46.83
2022-08-26T12:07:30.221Z,46.60
2022-08-26T12:10:02.118Z,48.45
2022-08-26T12:12:35.048Z,46.32
2022-08-26T12:15:16.406Z,46.77
2022-08-26T12:17:45.221Z,48.27
2022-08-26T12:20:31.477Z,46.92
2022-08-26T12:23:00.748Z,46.51
2022-08-26T12:25:28.069Z,45.72
2022-08-26T12:28:05.576Z,46.04
2022-08-26T12:30:32.349Z,45.58
2022-08-26T12:33:22.768Z,46.25
2022-08-26T12:35:54.766Z,46.80
2022-08-26T12:38:25.371Z,45.16
2022-08-26T12:40:52.429Z,45.46
2022-08-26T12:43:38.185Z,45.86
2022-08-26T12:46:06.759Z,45.92
2022-08-26T12:48:37.291Z,46.78
2022-08-26T12:51:07.664Z,47.66
2022-08-26T12:53:41.538Z,46.76
2022-08-26T12:56:38.947Z,46.86
2022-08-26T12:59:19.701Z,46.90
2022-08-26T13:01:47.044Z,46.87
2022-08-26T13:04:34.554Z,47.54
2022-08-26T13:07:27.174Z,47.88
2022-08-26T13:09:56.796Z,48.13
2022-08-26T13:12:29.637Z,48.05
2022-08-26T13:14:58.732Z,47.88
2022-08-26T13:17:26.859Z,48.24
2022-08-26T13:19:53.653Z,48.08
2022-08-26T13:22:27.047Z,47.79
2022-08-26T13:24:56.632Z,47.16
2022-08-26T13:27:26.306Z,47.15
2022-08-26T13:29:55.055Z,47.75
2022-08-26T13:32:27.575Z,47.28
2022-08-26T13:34:57.423Z,46.64
2022-08-26T13:37:35.270Z,45.70
2022-08-26T13:40:07.478Z,47.35
2022-08-26T13:42:34.716Z,46.98
2022-08-26T13:45:01.560Z,46.62
2022-08-26T13:47:29.318Z,46.43
2022-08-26T13:49:57.295Z,46.47
2022-08-26T13:52:30.259Z,46.80
2022-08-26T13:55:00.088Z,45.52
2022-08-26T13:57:28.326Z,45.29
2022-08-26T13:59:57.130Z,45.93
2022-08-26T14:02:23.844Z,48.56
2022-08-26T14:04:50.646Z,45.96
2022-08-26T14:07:17.518Z,45.65
2022-08-26T14:09:44.351Z,44.79
2022-08-26T14:12:10.901Z,45.04
2022-08-26T14:14:37.512Z,44.58
2022-08-26T14:17:04.257Z,45.89
2022-08-26T14:19:31.456Z,46.02
2022-08-26T14:22:00.576Z,45.25
2022-08-26T14:24:27.603Z,44.35
2022-08-26T14:26:54.157Z,44.71
2022-08-26T14:29:20.927Z,44.24
2022-08-26T14:31:48.411Z,45.27
2022-08-26T14:34:15.515Z,45.17
2022-08-26T14:36:42.385Z,45.65
2022-08-26T14:39:11.632Z,45.57
2022-08-26T14:41:54.093Z,45.90
2022-08-26T14:44:25.913Z,46.30
2022-08-26T14:46:54.446Z,45.67
2022-08-26T14:49:23.465Z,44.76
2022-08-26T14:51:50.378Z,45.36
2022-08-26T14:54:18.662Z,44.70
2022-08-26T14:57:06.069Z,43.88
2022-08-26T14:59:36.253Z,43.94
2022-08-26T15:02:04.117Z,44.18
2022-08-26T15:04:30.881Z,44.44
2022-08-26T15:06:59.558Z,43.92
2022-08-26T15:09:29.054Z,43.39
2022-08-26T15:11:56.370Z,42.39
2022-08-26T15:14:23.411Z,42.38
2022-08-26T15:16:51.981Z,42.12
2022-08-26T15:19:19.538Z,42.28
2022-08-26T15:21:47.300Z,43.03
2022-08-26T15:24:16.261Z,42.65
2022-08-26T15:26:43.415Z,42.22
2022-08-26T15:29:10.160Z,42.35
2022-08-26T15:31:37.022Z,42.80
2022-08-26T15:34:14.604Z,42.43
2022-08-26T15:36:45.857Z,44.87
2022-08-26T15:39:13.097Z,45.51
2022-08-26T15:41:39.760Z,44.67
2022-08-26T15:44:08.137Z,46.22
2022-08-26T15:46:36.423Z,45.39
2022-08-26T15:49:05.627Z,46.36
2022-08-26T15:51:45.791Z,43.97
2022-08-26T15:54:13.657Z,44.98
2022-08-26T15:56:40.345Z,46.04
2022-08-26T15:59:08.000Z,43.97
2022-08-26T16:01:35.411Z,45.38
2022-08-26T16:04:03.222Z,43.63
2022-08-26T16:06:32.601Z,44.67
2022-08-26T16:08:59.309Z,46.05
2022-08-26T16:11:26.596Z,46.61
2022-08-26T16:13:53.385Z,46.53
2022-08-26T16:16:21.381Z,45.60
2022-08-26T16:18:48.587Z,44.30
2022-08-26T16:21:17.259Z,45.38
2022-08-26T16:23:45.000Z,44.48
2022-08-26T16:26:17.684Z,46.37
2022-08-26T16:28:44.750Z,44.76
2022-08-26T16:31:12.156Z,45.88
2022-08-26T16:33:38.960Z,46.76
2022-08-26T16:36:06.831Z,46.03
2022-08-26T16:38:35.753Z,45.24
2022-08-26T16:41:02.384Z,45.39
2022-08-26T16:43:29.275Z,45.12
2022-08-26T16:45:56.706Z,46.03
2022-08-26T16:48:23.714Z,46.08
2022-08-26T16:50:51.529Z,45.89
2022-08-26T16:53:18.910Z,46.72
2022-08-26T16:55:50.158Z,46.18
2022-08-26T16:58:17.619Z,46.66
2022-08-26T17:00:45.162Z,46.56
2022-08-26T17:03:11.937Z,47.95
2022-08-26T17:05:39.173Z,47.62
2022-08-26T17:08:06.164Z,46.97
2022-08-26T17:10:33.753Z,47.82
2022-08-26T17:13:00.739Z,48.01
2022-08-26T17:15:27.375Z,46.94
2022-08-26T17:17:54.816Z,47.49
2022-08-26T17:20:23.316Z,48.18
2022-08-26T17:22:51.957Z,47.26
2022-08-26T17:25:27.427Z,47.83
2022-08-26T17:30:26.518Z,47.18
2022-08-26T17:32:54.409Z,47.47
2022-08-26T17:35:21.700Z,46.72
2022-08-26T17:37:48.375Z,46.88
2022-08-26T17:40:21.622Z,46.96
2022-08-26T17:42:48.570Z,46.88
2022-08-26T17:45:15.790Z,46.52
2022-08-26T17:47:43.435Z,45.70
2022-08-26T17:50:14.937Z,46.40
2022-08-26T17:52:43.911Z,47.23
2022-08-26T17:55:12.621Z,47.37
2022-08-26T17:57:40.761Z,48.38
2022-08-26T18:00:14.313Z,48.62
2022-08-26T18:02:41.167Z,48.70
2022-08-26T18:05:09.491Z,48.92
2022-08-26T18:07:43.521Z,48.61
2022-08-26T18:10:13.508Z,48.67
2022-08-26T18:12:41.666Z,48.77
2022-08-26T18:15:10.276Z,49.43
2022-08-26T18:17:39.104Z,48.98
2022-08-26T18:20:12.636Z,49.25
2022-08-26T18:22:39.748Z,49.48
2022-08-26T18:25:07.911Z,51.33
2022-08-26T18:27:36.137Z,50.95
2022-08-26T18:30:10.502Z,50.51
2022-08-26T18:32:39.156Z,51.70
2022-08-26T18:35:06.214Z,51.79
2022-08-26T18:37:34.170Z,51.75
2022-08-26T18:40:00.951Z,52.09
2022-08-26T18:42:28.749Z,51.50
2022-08-26T18:44:55.323Z,50.57
2022-08-26T18:47:22.746Z,50.83
2022-08-26T18:49:49.342Z,50.38
2022-08-26T18:52:15.975Z,49.80
2022-08-26T18:54:43.277Z,49.57
2022-08-26T18:57:11.369Z,49.30
2022-08-26T18:59:38.278Z,49.60
2022-08-26T19:02:05.368Z,50.03
2022-08-26T19:04:32.250Z,50.22
2022-08-26T19:06:58.867Z,49.79
2022-08-26T19:09:28.469Z,51.50
2022-08-26T19:14:28.761Z,51.83
2022-08-26T19:16:55.522Z,52.20
2022-08-26T19:19:25.616Z,52.89
2022-08-26T19:21:53.128Z,52.57
2022-08-26T19:24:21.130Z,52.42
2022-08-26T19:26:57.518Z,53.09
2022-08-26T19:29:26.990Z,52.77
2022-08-26T19:31:53.659Z,52.96
2022-08-26T19:34:20.931Z,53.38
2022-08-26T19:36:48.162Z,53.81
2022-08-26T19:39:14.890Z,53.80
2022-08-26T19:41:41.792Z,53.68
2022-08-26T19:44:33.805Z,54.00
2022-08-26T19:47:01.345Z,55.12
2022-08-26T19:49:27.922Z,54.87
2022-08-26T19:51:54.525Z,55.22
2022-08-26T19:54:22.730Z,56.12
2022-08-26T19:56:49.855Z,55.91
2022-08-26T19:59:17.469Z,55.80
2022-08-26T20:01:44.544Z,56.46
2022-08-26T20:04:11.147Z,56.41
2022-08-26T20:06:38.863Z,56.42
2022-08-26T20:09:05.774Z,55.88
2022-08-26T20:11:32.689Z,56.31
2022-08-26T20:13:59.715Z,56.36
2022-08-26T20:16:26.424Z,56.14
2022-08-26T20:19:11.563Z,56.33
2022-08-26T20:21:39.954Z,56.19
2022-08-26T20:24:15.926Z,56.75
2022-08-26T20:26:44.531Z,56.64
2022-08-26T20:29:13.665Z,56.60
2022-08-26T20:31:40.875Z,56.16
2022-08-26T20:34:07.595Z,56.19
2022-08-26T20:36:34.518Z,57.42
2022-08-26T20:39:01.323Z,56.74
2022-08-26T20:41:30.419Z,56.85
2022-08-26T20:44:00.421Z,57.08
2022-08-26T20:46:37.159Z,57.11
2022-08-26T20:49:14.145Z,57.59
2022-08-26T20:51:47.343Z,57.98
2022-08-26T20:54:14.016Z,59.15
2022-08-26T20:56:43.318Z,58.53
2022-08-26T20:59:10.415Z,57.89
2022-08-26T21:01:42.283Z,57.41
2022-08-26T21:04:15.445Z,57.11
2022-08-26T21:06:43.798Z,56.83
2022-08-26T21:09:16.633Z,56.28
2022-08-26T21:11:44.729Z,56.67
2022-08-26T21:14:16.871Z,57.55
2022-08-26T21:16:46.053Z,57.36
2022-08-26T21:19:15.301Z,57.29
2022-08-26T21:21:42.303Z,57.47
2022-08-26T21:24:09.359Z,57.13
2022-08-26T21:26:36.915Z,57.29
2022-08-26T21:29:04.496Z,57.42
2022-08-26T21:31:32.034Z,57.69
2022-08-26T21:33:59.258Z,57.00
2022-08-26T21:36:26.481Z,57.04
2022-08-26T21:38:56.154Z,56.87
2022-08-26T21:41:23.403Z,56.01
2022-08-26T21:43:53.500Z,56.08
2022-08-26T21:46:22.498Z,56.46
2022-08-26T21:48:51.916Z,56.55
2022-08-26T21:51:21.772Z,56.39
2022-08-26T21:53:48.549Z,55.84
2022-08-26T21:56:18.214Z,55.45
2022-08-26T21:58:45.705Z,55.37
2022-08-26T22:01:19.696Z,55.87
2022-08-26T22:03:47.552Z,54.73
2022-08-26T22:06:19.257Z,54.81
2022-08-26T22:08:45.990Z,55.34
2022-08-26T22:11:13.213Z,55.54
2022-08-26T22:13:42.044Z,55.78
2022-08-26T22:16:09.930Z,55.51
2022-08-26T22:18:37.639Z,55.60
2022-08-26T22:21:07.532Z,55.18
2022-08-26T22:23:35.557Z,55.47
2022-08-26T22:26:02.893Z,55.58
2022-08-26T22:28:29.661Z,56.05
2022-08-26T22:30:56.837Z,55.68
2022-08-26T22:33:24.698Z,55.20
2022-08-26T22:35:52.715Z,55.80
2022-08-26T22:38:20.536Z,55.96
2022-08-26T22:40:50.434Z,55.46
2022-08-26T22:43:19.014Z,54.66
2022-08-26T22:45:47.999Z,54.41
2022-08-26T22:48:24.058Z,55.05
2022-08-26T22:50:54.496Z,55.34
2022-08-26T22:53:23.806Z,55.55
2022-08-26T22:55:50.482Z,55.33
2022-08-26T22:58:18.598Z,55.65
2022-08-26T23:00:46.538Z,55.77
2022-08-26T23:03:14.850Z,56.24
2022-08-26T23:05:42.855Z,54.85
2022-08-26T23:08:12.195Z,54.66
2022-08-26T23:10:41.896Z,54.42
2022-08-26T23:13:08.863Z,54.42
2022-08-26T23:15:36.493Z,54.65
2022-08-26T23:18:04.050Z,55.30
2022-08-26T23:20:30.919Z,54.97
2022-08-26T23:22:58.626Z,55.52
2022-08-26T23:25:25.909Z,54.52
2022-08-26T23:27:52.772Z,54.60
2022-08-26T23:30:24.174Z,55.25
2022-08-26T23:32:51.581Z,55.40
2022-08-26T23:35:21.454Z,55.30
2022-08-26T23:37:53.717Z,54.46
2022-08-26T23:40:25.472Z,54.69
2022-08-26T23:42:54.626Z,55.20
2022-08-26T23:45:22.498Z,55.11
2022-08-26T23:47:50.587Z,55.31
2022-08-26T23:50:22.759Z,55.02
2022-08-26T23:53:08.724Z,55.40
2022-08-26T23:55:39.082Z,55.71
2022-08-26T23:58:06.469Z,55.33
